sensor_id;sensor_type;location;lat;lon;timestamp;pressure;altitude;pressure_sealevel;temperature;humidity
45357;BME280;31092;51.924;21.448;2023-02-11T00:01:21;101644.28;;;0.88;100.00
45357;BME280;31092;51.924;21.448;2023-02-11T00:03:48;101588.53;;;0.51;100.00
45357;BME280;31092;51.924;21.448;2023-02-11T00:06:13;101547.09;;;0.29;100.00
45357;BME280;31092;51.924;21.448;2023-02-11T00:08:39;101536.75;;;0.23;100.00
45357;BME280;31092;51.924;21.448;2023-02-11T00:11:05;101559.13;;;0.36;100.00
45357;BME280;31092;51.924;21.448;2023-02-11T00:13:31;101502.19;;;0.06;100.00
45357;BME280;31092;51.924;21.448;2023-02-11T00:15:56;101641.72;;;0.87;100.00
45357;BME280;31092;51.924;21.448;2023-02-11T00:18:22;101625.22;;;0.80;100.00
45357;BME280;31092;51.924;21.448;2023-02-11T00:20:47;101563.25;;;0.43;100.00
45357;BME280;31092;51.924;21.448;2023-02-11T00:23:13;101556.28;;;0.41;100.00
45357;BME280;31092;51.924;21.448;2023-02-11T00:25:44;101550.88;;;0.42;100.00
45357;BME280;31092;51.924;21.448;2023-02-11T00:28:10;101630.25;;;0.86;100.00
45357;BME280;31092;51.924;21.448;2023-02-11T00:30:35;101563.81;;;0.50;100.00
45357;BME280;31092;51.924;21.448;2023-02-11T00:33:01;101652.78;;;0.97;100.00
45357;BME280;31092;51.924;21.448;2023-02-11T00:35:27;101530.75;;;0.38;100.00
45357;BME280;31092;51.924;21.448;2023-02-11T00:37:54;101628.09;;;0.94;100.00
45357;BME280;31092;51.924;21.448;2023-02-11T00:40:19;101618.44;;;0.93;100.00
45357;BME280;31092;51.924;21.448;2023-02-11T00:42:45;101620.34;;;0.90;100.00
45357;BME280;31092;51.924;21.448;2023-02-11T00:45:10;101532.56;;;0.57;100.00
45357;BME280;31092;51.924;21.448;2023-02-11T00:47:36;101516.81;;;0.54;100.00
45357;BME280;31092;51.924;21.448;2023-02-11T00:50:02;101517.59;;;0.56;100.00
45357;BME280;31092;51.924;21.448;2023-02-11T00:52:30;101570.16;;;0.85;100.00
45357;BME280;31092;51.924;21.448;2023-02-11T00:54:55;101483.19;;;0.35;100.00
45357;BME280;31092;51.924;21.448;2023-02-11T00:57:21;101586.22;;;1.01;100.00
45357;BME280;31092;51.924;21.448;2023-02-11T00:59:46;101482.91;;;0.41;100.00
45357;BME280;31092;51.924;21.448;2023-02-11T01:02:11;101482.91;;;0.41;100.00
45357;BME280;31092;51.924;21.448;2023-02-11T01:04:37;101480.25;;;0.41;100.00
45357;BME280;31092;51.924;21.448;2023-02-11T01:07:02;101482.69;;;0.46;100.00
45357;BME280;31092;51.924;21.448;2023-02-11T01:09:28;101494.94;;;0.48;100.00
45357;BME280;31092;51.924;21.448;2023-02-11T01:11:53;101549.88;;;0.84;100.00
45357;BME280;31092;51.924;21.448;2023-02-11T01:14:19;101475.69;;;0.45;100.00
45357;BME280;31092;51.924;21.448;2023-02-11T01:16:44;101559.59;;;1.03;100.00
45357;BME280;31092;51.924;21.448;2023-02-11T01:19:10;101532.81;;;0.90;100.00
45357;BME280;31092;51.924;21.448;2023-02-11T01:21:35;101470.88;;;0.53;100.00
45357;BME280;31092;51.924;21.448;2023-02-11T01:24:00;101504.78;;;0.84;100.00
45357;BME280;31092;51.924;21.448;2023-02-11T01:26:26;101452.97;;;0.58;100.00
45357;BME280;31092;51.924;21.448;2023-02-11T01:28:51;101447.81;;;0.55;100.00
45357;BME280;31092;51.924;21.448;2023-02-11T01:31:17;101522.31;;;1.06;100.00
45357;BME280;31092;51.924;21.448;2023-02-11T01:33:42;101427.53;;;0.54;100.00
45357;BME280;31092;51.924;21.448;2023-02-11T01:36:08;101399.75;;;0.44;100.00
45357;BME280;31092;51.924;21.448;2023-02-11T01:38:34;101380.09;;;0.48;100.00
45357;BME280;31092;51.924;21.448;2023-02-11T01:41:02;101471.28;;;1.01;100.00
45357;BME280;31092;51.924;21.448;2023-02-11T01:43:32;101441.44;;;0.95;100.00
45357;BME280;31092;51.924;21.448;2023-02-11T01:46:01;101395.59;;;0.75;100.00
45357;BME280;31092;51.924;21.448;2023-02-11T01:48:37;101446.94;;;1.10;100.00
45357;BME280;31092;51.924;21.448;2023-02-11T01:51:11;101413.84;;;1.00;100.00
45357;BME280;31092;51.924;21.448;2023-02-11T01:53:38;101425.16;;;1.03;100.00
45357;BME280;31092;51.924;21.448;2023-02-11T01:56:24;101340.06;;;0.54;100.00
45357;BME280;31092;51.924;21.448;2023-02-11T01:59:23;101326.28;;;0.46;100.00
45357;BME280;31092;51.924;21.448;2023-02-11T02:01:56;101319.22;;;0.46;100.00
45357;BME280;31092;51.924;21.448;2023-02-11T02:04:24;101342.31;;;0.62;100.00
45357;BME280;31092;51.924;21.448;2023-02-11T02:06:59;101407.91;;;0.94;100.00
45357;BME280;31092;51.924;21.448;2023-02-11T02:09:29;101409.31;;;1.02;100.00
45357;BME280;31092;51.924;21.448;2023-02-11T02:11:56;101306.81;;;0.47;100.00
45357;BME280;31092;51.924;21.448;2023-02-11T02:14:22;101323.50;;;0.49;100.00
45357;BME280;31092;51.924;21.448;2023-02-11T02:16:47;101330.59;;;0.48;100.00
45357;BME280;31092;51.924;21.448;2023-02-11T02:22:31;101386.59;;;0.79;100.00
45357;BME280;31092;51.924;21.448;2023-02-11T02:31:08;101388.91;;;1.04;100.00
45357;BME280;31092;51.924;21.448;2023-02-11T02:36:36;101374.44;;;1.09;100.00
45357;BME280;31092;51.924;21.448;2023-02-11T02:39:12;101245.16;;;0.43;100.00
45357;BME280;31092;51.924;21.448;2023-02-11T02:41:40;101264.41;;;0.47;100.00
45357;BME280;31092;51.924;21.448;2023-02-11T02:44:07;101330.72;;;0.99;100.00
45357;BME280;31092;51.924;21.448;2023-02-11T02:46:34;101251.72;;;0.54;100.00
45357;BME280;31092;51.924;21.448;2023-02-11T02:49:00;101343.44;;;1.10;100.00
45357;BME280;31092;51.924;21.448;2023-02-11T03:00:12;101339.53;;;1.17;100.00
45357;BME280;31092;51.924;21.448;2023-02-11T03:10:58;101328.63;;;1.06;100.00
45357;BME280;31092;51.924;21.448;2023-02-11T03:13:35;101250.28;;;0.64;100.00
45357;BME280;31092;51.924;21.448;2023-02-11T03:16:12;101231.69;;;0.65;100.00
45357;BME280;31092;51.924;21.448;2023-02-11T03:18:41;101273.06;;;0.85;100.00
45357;BME280;31092;51.924;21.448;2023-02-11T03:21:12;101327.94;;;1.19;100.00
45357;BME280;31092;51.924;21.448;2023-02-11T03:23:45;101313.50;;;1.08;100.00
45357;BME280;31092;51.924;21.448;2023-02-11T03:26:31;101333.09;;;1.23;100.00
45357;BME280;31092;51.924;21.448;2023-02-11T03:31:55;101315.50;;;1.20;100.00
45357;BME280;31092;51.924;21.448;2023-02-11T03:34:44;101322.38;;;1.24;100.00
45357;BME280;31092;51.924;21.448;2023-02-11T03:37:28;101311.75;;;1.24;100.00
45357;BME280;31092;51.924;21.448;2023-02-11T03:40:01;101287.72;;;1.10;100.00
45357;BME280;31092;51.924;21.448;2023-02-11T03:42:32;101301.78;;;1.29;100.00
45357;BME280;31092;51.924;21.448;2023-02-11T03:45:04;101286.16;;;1.23;100.00
45357;BME280;31092;51.924;21.448;2023-02-11T03:47:32;101255.03;;;1.09;100.00
45357;BME280;31092;51.924;21.448;2023-02-11T03:50:00;101177.00;;;0.63;100.00
45357;BME280;31092;51.924;21.448;2023-02-11T03:52:28;101272.28;;;1.18;100.00
45357;BME280;31092;51.924;21.448;2023-02-11T03:54:56;101268.59;;;1.20;100.00
45357;BME280;31092;51.924;21.448;2023-02-11T03:57:22;101267.03;;;1.16;100.00
45357;BME280;31092;51.924;21.448;2023-02-11T03:59:57;101197.03;;;0.86;100.00
45357;BME280;31092;51.924;21.448;2023-02-11T04:02:29;101196.94;;;0.87;100.00
45357;BME280;31092;51.924;21.448;2023-02-11T04:04:56;101157.03;;;0.73;100.00
45357;BME280;31092;51.924;21.448;2023-02-11T04:07:22;101230.94;;;1.14;100.00
45357;BME280;31092;51.924;21.448;2023-02-11T04:09:48;101248.25;;;1.21;100.00
45357;BME280;31092;51.924;21.448;2023-02-11T04:12:13;101152.41;;;0.77;100.00
45357;BME280;31092;51.924;21.448;2023-02-11T04:14:39;101214.53;;;1.06;100.00
45357;BME280;31092;51.924;21.448;2023-02-11T04:17:05;101225.28;;;1.20;100.00
45357;BME280;31092;51.924;21.448;2023-02-11T04:19:30;101121.72;;;0.55;100.00
45357;BME280;31092;51.924;21.448;2023-02-11T04:21:56;101124.66;;;0.66;100.00
45357;BME280;31092;51.924;21.448;2023-02-11T04:24:21;101191.28;;;1.11;100.00
45357;BME280;31092;51.924;21.448;2023-02-11T04:26:47;101201.81;;;1.12;100.00
45357;BME280;31092;51.924;21.448;2023-02-11T04:29:12;101179.97;;;1.07;100.00
45357;BME280;31092;51.924;21.448;2023-02-11T04:31:38;101091.16;;;0.65;100.00
45357;BME280;31092;51.924;21.448;2023-02-11T04:34:04;101200.81;;;1.15;100.00
45357;BME280;31092;51.924;21.448;2023-02-11T04:36:29;101091.84;;;0.69;100.00
45357;BME280;31092;51.924;21.448;2023-02-11T04:38:54;101082.94;;;0.70;100.00
45357;BME280;31092;51.924;21.448;2023-02-11T04:41:20;101148.75;;;1.12;100.00
45357;BME280;31092;51.924;21.448;2023-02-11T04:43:45;101071.03;;;0.61;100.00
45357;BME280;31092;51.924;21.448;2023-02-11T04:46:11;101060.66;;;0.57;100.00
45357;BME280;31092;51.924;21.448;2023-02-11T04:48:36;101147.88;;;1.12;100.00
45357;BME280;31092;51.924;21.448;2023-02-11T04:51:02;101070.19;;;0.61;100.00
45357;BME280;31092;51.924;21.448;2023-02-11T04:53:28;101068.13;;;0.66;100.00
45357;BME280;31092;51.924;21.448;2023-02-11T04:55:53;101157.13;;;1.20;100.00
45357;BME280;31092;51.924;21.448;2023-02-11T04:58:19;101142.41;;;1.15;100.00
45357;BME280;31092;51.924;21.448;2023-02-11T05:00:45;101143.28;;;1.15;100.00
45357;BME280;31092;51.924;21.448;2023-02-11T05:03:13;101053.34;;;0.62;100.00
45357;BME280;31092;51.924;21.448;2023-02-11T05:05:40;101106.34;;;0.95;100.00
45357;BME280;31092;51.924;21.448;2023-02-11T05:08:06;101027.56;;;0.48;100.00
45357;BME280;31092;51.924;21.448;2023-02-11T05:10:32;101109.78;;;0.97;100.00
45357;BME280;31092;51.924;21.448;2023-02-11T05:12:58;101074.72;;;0.75;100.00
45357;BME280;31092;51.924;21.448;2023-02-11T05:15:23;101037.91;;;0.53;100.00
45357;BME280;31092;51.924;21.448;2023-02-11T05:17:49;101002.31;;;0.25;100.00
45357;BME280;31092;51.924;21.448;2023-02-11T05:20:14;100988.53;;;0.18;100.00
45357;BME280;31092;51.924;21.448;2023-02-11T05:22:40;100977.22;;;0.15;100.00
45357;BME280;31092;51.924;21.448;2023-02-11T05:25:05;101031.38;;;0.42;100.00
45357;BME280;31092;51.924;21.448;2023-02-11T05:27:31;100980.72;;;0.15;100.00
45357;BME280;31092;51.924;21.448;2023-02-11T05:29:56;101074.66;;;0.76;100.00
45357;BME280;31092;51.924;21.448;2023-02-11T05:32:22;100998.19;;;0.35;100.00
45357;BME280;31092;51.924;21.448;2023-02-11T05:34:47;101059.19;;;0.84;100.00
45357;BME280;31092;51.924;21.448;2023-02-11T05:37:13;101052.19;;;0.83;100.00
45357;BME280;31092;51.924;21.448;2023-02-11T05:39:38;101050.22;;;0.87;100.00
45357;BME280;31092;51.924;21.448;2023-02-11T05:42:04;100960.88;;;0.40;100.00
45357;BME280;31092;51.924;21.448;2023-02-11T05:44:29;100970.19;;;0.47;100.00
45357;BME280;31092;51.924;21.448;2023-02-11T05:46:55;101024.72;;;0.84;100.00
45357;BME280;31092;51.924;21.448;2023-02-11T05:49:20;100964.06;;;0.46;100.00
45357;BME280;31092;51.924;21.448;2023-02-11T05:51:45;100978.59;;;0.55;100.00
45357;BME280;31092;51.924;21.448;2023-02-11T05:54:11;101037.81;;;0.87;100.00
45357;BME280;31092;51.924;21.448;2023-02-11T05:56:36;101042.69;;;0.95;100.00
45357;BME280;31092;51.924;21.448;2023-02-11T05:59:02;101037.31;;;0.97;100.00
45357;BME280;31092;51.924;21.448;2023-02-11T06:01:28;100963.63;;;0.54;100.00
45357;BME280;31092;51.924;21.448;2023-02-11T06:03:53;100954.13;;;0.50;100.00
45357;BME280;31092;51.924;21.448;2023-02-11T06:06:19;100954.03;;;0.52;100.00
45357;BME280;31092;51.924;21.448;2023-02-11T06:08:44;100924.78;;;0.37;100.00
45357;BME280;31092;51.924;21.448;2023-02-11T06:11:10;100920.97;;;0.43;100.00
45357;BME280;31092;51.924;21.448;2023-02-11T06:13:35;101022.66;;;1.05;100.00
45357;BME280;31092;51.924;21.448;2023-02-11T06:16:02;101022.78;;;1.04;100.00
45357;BME280;31092;51.924;21.448;2023-02-11T06:18:28;101015.13;;;0.98;100.00
45357;BME280;31092;51.924;21.448;2023-02-11T06:20:53;101024.28;;;0.92;100.00
45357;BME280;31092;51.924;21.448;2023-02-11T06:23:20;100997.25;;;0.85;100.00
45357;BME280;31092;51.924;21.448;2023-02-11T06:25:45;100979.53;;;0.70;100.00
45357;BME280;31092;51.924;21.448;2023-02-11T06:28:11;100965.59;;;0.66;100.00
45357;BME280;31092;51.924;21.448;2023-02-11T06:30:37;100967.97;;;0.71;100.00
45357;BME280;31092;51.924;21.448;2023-02-11T06:33:03;100996.84;;;0.93;100.00
45357;BME280;31092;51.924;21.448;2023-02-11T06:35:28;100907.09;;;0.54;100.00
45357;BME280;31092;51.924;21.448;2023-02-11T06:37:54;100927.53;;;0.67;100.00
45357;BME280;31092;51.924;21.448;2023-02-11T06:40:19;100944.88;;;0.89;100.00
45357;BME280;31092;51.924;21.448;2023-02-11T06:42:45;100965.59;;;0.98;100.00
45357;BME280;31092;51.924;21.448;2023-02-11T06:45:11;100996.38;;;1.16;100.00
45357;BME280;31092;51.924;21.448;2023-02-11T06:47:38;100906.25;;;0.69;100.00
45357;BME280;31092;51.924;21.448;2023-02-11T06:50:05;100978.06;;;1.12;100.00
45357;BME280;31092;51.924;21.448;2023-02-11T06:52:32;100987.41;;;1.19;100.00
45357;BME280;31092;51.924;21.448;2023-02-11T06:54:58;100936.00;;;0.90;100.00
45357;BME280;31092;51.924;21.448;2023-02-11T06:57:23;100977.75;;;1.18;100.00
45357;BME280;31092;51.924;21.448;2023-02-11T06:59:49;100979.34;;;1.20;100.00
45357;BME280;31092;51.924;21.448;2023-02-11T07:02:15;100872.72;;;0.68;100.00
45357;BME280;31092;51.924;21.448;2023-02-11T07:04:40;100911.75;;;0.96;100.00
45357;BME280;31092;51.924;21.448;2023-02-11T07:07:06;100869.63;;;0.76;100.00
45357;BME280;31092;51.924;21.448;2023-02-11T07:09:32;100956.91;;;1.26;100.00
45357;BME280;31092;51.924;21.448;2023-02-11T07:11:57;100929.34;;;1.29;100.00
45357;BME280;31092;51.924;21.448;2023-02-11T07:14:22;100830.88;;;0.73;100.00
45357;BME280;31092;51.924;21.448;2023-02-11T07:16:48;100926.53;;;1.32;100.00
45357;BME280;31092;51.924;21.448;2023-02-11T07:19:14;100920.66;;;1.41;100.00
45357;BME280;31092;51.924;21.448;2023-02-11T07:21:40;100849.94;;;1.10;100.00
45357;BME280;31092;51.924;21.448;2023-02-11T07:24:07;100891.56;;;1.39;100.00
45357;BME280;31092;51.924;21.448;2023-02-11T07:26:33;100918.13;;;1.54;100.00
45357;BME280;31092;51.924;21.448;2023-02-11T07:28:58;100846.38;;;1.11;100.00
45357;BME280;31092;51.924;21.448;2023-02-11T07:31:26;100922.13;;;1.61;100.00
45357;BME280;31092;51.924;21.448;2023-02-11T07:33:53;100925.94;;;1.57;100.00
45357;BME280;31092;51.924;21.448;2023-02-11T07:36:22;100944.31;;;1.60;100.00
45357;BME280;31092;51.924;21.448;2023-02-11T07:38:48;100947.06;;;1.58;100.00
45357;BME280;31092;51.924;21.448;2023-02-11T07:41:17;100855.13;;;0.97;100.00
45357;BME280;31092;51.924;21.448;2023-02-11T07:43:44;100858.91;;;0.93;100.00
45357;BME280;31092;51.924;21.448;2023-02-11T07:46:13;100941.50;;;1.33;100.00
45357;BME280;31092;51.924;21.448;2023-02-11T07:52:00;100787.50;;;0.44;100.00
45357;BME280;31092;51.924;21.448;2023-02-11T07:54:26;100881.38;;;1.02;100.00
45357;BME280;31092;51.924;21.448;2023-02-11T07:56:51;100865.31;;;0.89;100.00
45357;BME280;31092;51.924;21.448;2023-02-11T07:59:17;100935.41;;;1.31;100.00
45357;BME280;31092;51.924;21.448;2023-02-11T08:01:42;100937.47;;;1.26;100.00
45357;BME280;31092;51.924;21.448;2023-02-11T08:04:08;100935.28;;;1.18;100.00
45357;BME280;31092;51.924;21.448;2023-02-11T08:06:34;100825.97;;;0.51;100.00
45357;BME280;31092;51.924;21.448;2023-02-11T08:09:07;100901.25;;;0.94;100.00
45357;BME280;31092;51.924;21.448;2023-02-11T08:11:34;100820.81;;;0.48;100.00
45357;BME280;31092;51.924;21.448;2023-02-11T08:13:59;100882.69;;;0.94;100.00
45357;BME280;31092;51.924;21.448;2023-02-11T08:16:33;100914.13;;;1.16;100.00
45357;BME280;31092;51.924;21.448;2023-02-11T08:19:03;100832.97;;;0.68;100.00
45357;BME280;31092;51.924;21.448;2023-02-11T08:21:30;100842.66;;;0.83;100.00
45357;BME280;31092;51.924;21.448;2023-02-11T08:23:56;100924.72;;;1.32;100.00
45357;BME280;31092;51.924;21.448;2023-02-11T08:26:26;100892.53;;;1.23;100.00
45357;BME280;31092;51.924;21.448;2023-02-11T08:28:54;100882.28;;;1.16;100.00
45357;BME280;31092;51.924;21.448;2023-02-11T08:31:24;100871.41;;;1.21;100.00
45357;BME280;31092;51.924;21.448;2023-02-11T08:33:50;100901.13;;;1.42;100.00
45357;BME280;31092;51.924;21.448;2023-02-11T08:36:20;100898.47;;;1.42;100.00
45357;BME280;31092;51.924;21.448;2023-02-11T08:38:46;100825.69;;;1.02;100.00
45357;BME280;31092;51.924;21.448;2023-02-11T08:41:12;100799.97;;;0.88;100.00
45357;BME280;31092;51.924;21.448;2023-02-11T08:43:42;100891.00;;;1.49;100.00
45357;BME280;31092;51.924;21.448;2023-02-11T08:46:09;100806.31;;;1.00;100.00
45357;BME280;31092;51.924;21.448;2023-02-11T08:48:36;100888.94;;;1.54;100.00
45357;BME280;31092;51.924;21.448;2023-02-11T08:51:05;100804.09;;;1.08;100.00
45357;BME280;31092;51.924;21.448;2023-02-11T08:53:32;100869.09;;;1.45;100.00
45357;BME280;31092;51.924;21.448;2023-02-11T08:55:57;100798.31;;;1.01;100.00
45357;BME280;31092;51.924;21.448;2023-02-11T08:58:23;100874.31;;;1.47;100.00
45357;BME280;31092;51.924;21.448;2023-02-11T09:00:48;100861.41;;;1.40;100.00
45357;BME280;31092;51.924;21.448;2023-02-11T09:03:15;100878.97;;;1.43;100.00
45357;BME280;31092;51.924;21.448;2023-02-11T09:05:48;100791.53;;;0.95;100.00
45357;BME280;31092;51.924;21.448;2023-02-11T09:08:20;100877.81;;;1.47;100.00
45357;BME280;31092;51.924;21.448;2023-02-11T09:10:46;100873.53;;;1.44;100.00
45357;BME280;31092;51.924;21.448;2023-02-11T09:13:12;100845.75;;;1.36;100.00
45357;BME280;31092;51.924;21.448;2023-02-11T09:15:38;100838.72;;;1.35;100.00
45357;BME280;31092;51.924;21.448;2023-02-11T09:18:04;100747.88;;;0.87;100.00
45357;BME280;31092;51.924;21.448;2023-02-11T09:20:30;100820.34;;;1.32;100.00
45357;BME280;31092;51.924;21.448;2023-02-11T09:22:57;100838.47;;;1.39;100.00
45357;BME280;31092;51.924;21.448;2023-02-11T09:25:23;100820.06;;;1.36;100.00
45357;BME280;31092;51.924;21.448;2023-02-11T09:27:49;100786.88;;;1.29;100.00
45357;BME280;31092;51.924;21.448;2023-02-11T09:30:16;100798.25;;;1.46;100.00
45357;BME280;31092;51.924;21.448;2023-02-11T09:32:42;100709.13;;;0.99;100.00
45357;BME280;31092;51.924;21.448;2023-02-11T09:35:07;100797.59;;;1.42;100.00
45357;BME280;31092;51.924;21.448;2023-02-11T09:37:33;100725.53;;;0.91;100.00
45357;BME280;31092;51.924;21.448;2023-02-11T09:39:58;100716.78;;;0.89;100.00
45357;BME280;31092;51.924;21.448;2023-02-11T09:45:02;100832.03;;;1.43;100.00
45357;BME280;31092;51.924;21.448;2023-02-11T09:47:33;100735.34;;;0.89;100.00
45357;BME280;31092;51.924;21.448;2023-02-11T09:50:06;100721.84;;;0.93;100.00
45357;BME280;31092;51.924;21.448;2023-02-11T09:55:39;100798.56;;;1.41;100.00
45357;BME280;31092;51.924;21.448;2023-02-11T09:58:19;100823.88;;;1.47;100.00
45357;BME280;31092;51.924;21.448;2023-02-11T10:04:06;100829.94;;;1.49;100.00
45357;BME280;31092;51.924;21.448;2023-02-11T10:06:42;100827.28;;;1.49;100.00
45357;BME280;31092;51.924;21.448;2023-02-11T10:23:42;100790.94;;;1.35;100.00
45357;BME280;31092;51.924;21.448;2023-02-11T10:26:12;100784.78;;;1.34;100.00
45357;BME280;31092;51.924;21.448;2023-02-11T10:28:39;100723.25;;;0.99;100.00
45357;BME280;31092;51.924;21.448;2023-02-11T10:31:14;100781.22;;;1.35;100.00
45357;BME280;31092;51.924;21.448;2023-02-11T10:33:58;100695.97;;;0.83;100.00
45357;BME280;31092;51.924;21.448;2023-02-11T10:36:29;100688.88;;;0.83;100.00
45357;BME280;31092;51.924;21.448;2023-02-11T10:39:01;100757.50;;;1.18;100.00
45357;BME280;31092;51.924;21.448;2023-02-11T10:41:59;100761.31;;;1.28;100.00
45357;BME280;31092;51.924;21.448;2023-02-11T10:44:30;100650.56;;;0.59;100.00
45357;BME280;31092;51.924;21.448;2023-02-11T10:46:58;100670.94;;;0.73;100.00
45357;BME280;31092;51.924;21.448;2023-02-11T10:49:42;100710.63;;;0.88;100.00
45357;BME280;31092;51.924;21.448;2023-02-11T10:52:27;100774.47;;;1.30;100.00
45357;BME280;31092;51.924;21.448;2023-02-11T10:55:21;100753.06;;;1.33;100.00
45357;BME280;31092;51.924;21.448;2023-02-11T10:57:59;100741.09;;;1.26;100.00
45357;BME280;31092;51.924;21.448;2023-02-11T11:00:36;100759.22;;;1.33;100.00
45357;BME280;31092;51.924;21.448;2023-02-11T11:03:19;100739.19;;;1.28;100.00
45357;BME280;31092;51.924;21.448;2023-02-11T11:05:52;100665.66;;;0.87;100.00
45357;BME280;31092;51.924;21.448;2023-02-11T11:08:19;100673.31;;;0.91;100.00
45357;BME280;31092;51.924;21.448;2023-02-11T11:11:05;100735.22;;;1.35;100.00
45357;BME280;31092;51.924;21.448;2023-02-11T11:13:37;100717.22;;;1.26;100.00
45357;BME280;31092;51.924;21.448;2023-02-11T11:16:08;100732.66;;;1.33;100.00
45357;BME280;31092;51.924;21.448;2023-02-11T11:18:34;100620.09;;;0.80;100.00
45357;BME280;31092;51.924;21.448;2023-02-11T11:21:01;100683.28;;;1.16;100.00
45357;BME280;31092;51.924;21.448;2023-02-11T11:23:29;100702.63;;;1.18;100.00
45357;BME280;31092;51.924;21.448;2023-02-11T11:26:11;100724.53;;;1.36;100.00
45357;BME280;31092;51.924;21.448;2023-02-11T11:28:57;100721.88;;;1.36;100.00
45357;BME280;31092;51.924;21.448;2023-02-11T11:31:43;100590.44;;;0.59;100.00
45357;BME280;31092;51.924;21.448;2023-02-11T11:36:51;100683.56;;;1.26;100.00
45357;BME280;31092;51.924;21.448;2023-02-11T11:39:29;100638.66;;;0.94;100.00
45357;BME280;31092;51.924;21.448;2023-02-11T11:41:58;100619.91;;;0.83;100.00
45357;BME280;31092;51.924;21.448;2023-02-11T11:44:32;100651.38;;;0.89;100.00
45357;BME280;31092;51.924;21.448;2023-02-11T11:47:14;100745.66;;;1.38;100.00
45357;BME280;31092;51.924;21.448;2023-02-11T11:50:11;100748.41;;;1.36;100.00
45357;BME280;31092;51.924;21.448;2023-02-11T11:55:24;100743.09;;;1.36;100.00
45357;BME280;31092;51.924;21.448;2023-02-11T11:57:51;100705.34;;;1.17;100.00
45357;BME280;31092;51.924;21.448;2023-02-11T12:00:20;100728.41;;;1.31;100.00
45357;BME280;31092;51.924;21.448;2023-02-11T12:02:56;100737.59;;;1.39;100.00
45357;BME280;31092;51.924;21.448;2023-02-11T12:05:52;100643.59;;;0.86;100.00
45357;BME280;31092;51.924;21.448;2023-02-11T12:14:18;100665.31;;;1.07;100.00
45357;BME280;31092;51.924;21.448;2023-02-11T12:17:13;100704.41;;;1.47;100.00
45357;BME280;31092;51.924;21.448;2023-02-11T12:28:23;100702.97;;;1.55;100.00
45357;BME280;31092;51.924;21.448;2023-02-11T12:31:03;100706.47;;;1.56;100.00
45357;BME280;31092;51.924;21.448;2023-02-11T12:33:44;100601.81;;;1.04;100.00
45357;BME280;31092;51.924;21.448;2023-02-11T12:36:31;100647.63;;;1.35;100.00
45357;BME280;31092;51.924;21.448;2023-02-11T12:45:11;100686.66;;;1.61;100.00
45357;BME280;31092;51.924;21.448;2023-02-11T12:47:52;100687.50;;;1.62;100.00
45357;BME280;31092;51.924;21.448;2023-02-11T12:55:37;100659.00;;;1.51;100.00
45357;BME280;31092;51.924;21.448;2023-02-11T12:58:08;100656.44;;;1.50;100.00
45357;BME280;31092;51.924;21.448;2023-02-11T13:00:45;100664.97;;;1.55;100.00
45357;BME280;31092;51.924;21.448;2023-02-11T13:03:24;100659.47;;;1.58;100.00
45357;BME280;31092;51.924;21.448;2023-02-11T13:06:20;100679.91;;;1.70;100.00
45357;BME280;31092;51.924;21.448;2023-02-11T13:08:58;100684.19;;;1.73;100.00
45357;BME280;31092;51.924;21.448;2023-02-11T13:11:27;100640.22;;;1.54;100.00
45357;BME280;31092;51.924;21.448;2023-02-11T13:14:00;100671.94;;;1.70;100.00
45357;BME280;31092;51.924;21.448;2023-02-11T13:19:00;100667.75;;;1.80;100.00
45357;BME280;31092;51.924;21.448;2023-02-11T13:21:35;100554.75;;;1.35;100.00
45357;BME280;31092;51.924;21.448;2023-02-11T13:32:11;100621.09;;;1.76;100.00
45357;BME280;31092;51.924;21.448;2023-02-11T13:37:42;100609.81;;;1.73;100.00
45357;BME280;31092;51.924;21.448;2023-02-11T13:43:04;100646.91;;;2.01;100.00
45357;BME280;31092;51.924;21.448;2023-02-11T13:48:16;100626.03;;;1.95;100.00
45357;BME280;31092;51.924;21.448;2023-02-11T13:50:47;100643.28;;;2.02;100.00
45357;BME280;31092;51.924;21.448;2023-02-11T13:53:14;100559.03;;;1.64;100.00
45357;BME280;31092;51.924;21.448;2023-02-11T13:55:46;100600.75;;;1.89;100.00
45357;BME280;31092;51.924;21.448;2023-02-11T13:58:16;100655.84;;;2.13;100.00
45357;BME280;31092;51.924;21.448;2023-02-11T14:00:45;100600.31;;;1.96;100.00
45357;BME280;31092;51.924;21.448;2023-02-11T14:09:31;100631.22;;;2.24;100.00
45357;BME280;31092;51.924;21.448;2023-02-11T14:12:29;100540.47;;;1.77;100.00
45357;BME280;31092;51.924;21.448;2023-02-11T14:15:01;100635.28;;;2.29;100.00
45357;BME280;31092;51.924;21.448;2023-02-11T14:17:41;100606.88;;;2.17;100.00
45357;BME280;31092;51.924;21.448;2023-02-11T14:20:42;100640.47;;;2.31;100.00
45357;BME280;31092;51.924;21.448;2023-02-11T14:23:20;100554.19;;;1.84;100.00
45357;BME280;31092;51.924;21.448;2023-02-11T14:25:58;100567.25;;;1.87;100.00
45357;BME280;31092;51.924;21.448;2023-02-11T14:28:28;100635.41;;;2.28;100.00
45357;BME280;31092;51.924;21.448;2023-02-11T14:31:10;100631.13;;;2.25;100.00
45357;BME280;31092;51.924;21.448;2023-02-11T14:33:54;100591.22;;;2.00;100.00
45357;BME280;31092;51.924;21.448;2023-02-11T14:36:55;100608.91;;;2.13;100.00
45357;BME280;31092;51.924;21.448;2023-02-11T14:42:16;100650.72;;;2.37;100.00
45357;BME280;31092;51.924;21.448;2023-02-11T14:44:45;100531.19;;;1.70;100.00
45357;BME280;31092;51.924;21.448;2023-02-11T14:47:39;100653.69;;;2.45;100.00
45357;BME280;31092;51.924;21.448;2023-02-11T14:50:10;100625.69;;;2.27;100.00
45357;BME280;31092;51.924;21.448;2023-02-11T14:52:39;100645.31;;;2.38;100.00